Dzerzhinsk, Russia
Current Conditions -  °F | °C
As of 2:30 AM on Monday 22 Dec 2014 (Local Time) from UWGG Reporting Station
Snow Showers Snow Showers  
Wind Chill: 28°   Ceiling: 1000
Heat Index: 34°   Visibility: 5mi
Dew Point: 32°   Wind: 7mph
Humidity: 93%   Direction: 200°SSW
Pressure: 29.5"   Gusts: NA
Location:  56.24°N, 43.46°E
Report Text: UWGG 212330Z 20003MPS 8000 -SHSN OVC010CB 01/M00 Q0999 NOSIG18120048 RMK QFE742
Loading
Personal Weather Stations






























Interactive Weather Map New forecast layout! Learn more

10-Day Weather Forecast

Advertisements
Track Severe Weather on mobile